Time;durP1;ratioP1;P1;durP2;ratioP2;P2;SDS_P1;SDS_P2;PMS_P1;PMS_P2;Temp;Humidity;BMP_temperature;BMP_pressure;BME280_temperature;BME280_humidity;BME280_pressure;Samples;Min_cycle;Max_cycle;Signal;HPM_P1;HPM_P2
2022/04/27 00:00:30;;;;;;;8.27;3.85;;;;;;;8.49;74.47;102383.97;5054444;28;20052;-78
2022/04/27 00:02:57;;;;;;;7.60;3.75;;;;;;;8.51;74.78;102382.00;5054401;28;20025;-75
2022/04/27 00:05:23;;;;;;;8.20;4.50;;;;;;;8.60;74.72;102384.88;5054434;28;20044;-76
2022/04/27 00:07:48;;;;;;;6.30;3.50;;;;;;;8.59;74.29;102385.88;5036943;28;20032;-75
2022/04/27 00:10:14;;;;;;;9.18;3.88;;;;;;;8.57;73.86;102377.94;5065788;28;20029;-75
2022/04/27 00:12:40;;;;;;;11.40;4.28;;;;;;;8.50;73.42;102382.13;5053258;28;20109;-75
2022/04/27 00:15:06;;;;;;;7.30;4.22;;;;;;;8.48;73.93;102382.28;5054488;28;20064;-74
2022/04/27 00:17:32;;;;;;;10.23;4.95;;;;;;;8.50;74.52;102372.25;5054387;28;20044;-75
2022/04/27 00:19:57;;;;;;;8.27;4.40;;;;;;;8.52;74.92;102372.97;5054316;28;20029;-76
2022/04/27 00:22:23;;;;;;;10.27;5.18;;;;;;;8.53;74.14;102366.63;5053943;28;20108;-75
2022/04/27 00:24:48;;;;;;;12.50;5.13;;;;;;;8.55;73.79;102366.50;5053784;28;20603;-75
2022/04/27 00:27:14;;;;;;;11.80;5.10;;;;;;;8.49;73.75;102373.25;5054224;28;20028;-75
2022/04/27 00:29:39;;;;;;;9.50;4.53;;;;;;;8.47;74.12;102369.81;5054653;28;20033;-76
2022/04/27 00:32:05;;;;;;;9.07;4.45;;;;;;;8.47;73.83;102375.19;5054611;28;20053;-76
2022/04/27 00:34:30;;;;;;;10.57;4.47;;;;;;;8.42;73.65;102377.41;5053485;28;20114;-74
2022/04/27 00:36:55;;;;;;;10.35;4.35;;;;;;;8.36;73.75;102370.72;5053947;28;20028;-75
2022/04/27 00:39:21;;;;;;;10.95;4.25;;;;;;;8.34;74.08;102369.13;5055051;28;20039;-76
2022/04/27 00:42:04;;;;;;;9.48;4.50;;;;;;;8.29;74.07;102376.72;5073866;28;20051;-74
2022/04/27 00:44:31;;;;;;;9.05;4.05;;;;;;;8.28;74.78;102378.56;5074156;28;20027;-75
2022/04/27 00:46:56;;;;;;;10.43;4.53;;;;;;;8.28;74.78;102385.75;5073742;28;20491;-76
2022/04/27 00:49:22;;;;;;;10.45;4.90;;;;;;;8.26;74.90;102380.50;5072960;28;20024;-75
2022/04/27 00:51:48;;;;;;;9.85;4.88;;;;;;;8.29;75.07;102376.72;5072198;28;20075;-74
2022/04/27 00:54:14;;;;;;;9.32;4.63;;;;;;;8.30;75.37;102389.16;5074019;28;20029;-76
2022/04/27 00:56:40;;;;;;;12.30;5.22;;;;;;;8.35;75.39;102389.63;5074580;28;20028;-76
2022/04/27 00:59:05;;;;;;;15.20;5.07;;;;;;;8.39;75.50;102380.38;5069594;28;20025;-77
2022/04/27 01:01:31;;;;;;;14.75;5.78;;;;;;;8.45;75.42;102376.31;5054061;28;20496;-78
2022/04/27 01:03:56;;;;;;;10.23;4.85;;;;;;;8.49;75.19;102383.97;5053641;28;20025;-76
2022/04/27 01:06:22;;;;;;;8.40;4.60;;;;;;;8.52;75.26;102378.34;5053870;28;20104;-77
2022/04/27 01:08:48;;;;;;;6.82;4.15;;;;;;;8.54;75.17;102381.75;5053506;28;20029;-76
2022/04/27 01:11:15;;;;;;;9.68;5.55;;;;;;;8.58;75.48;102374.28;5077693;28;20476;-76
2022/04/27 01:13:41;;;;;;;16.83;5.25;;;;;;;8.61;75.02;102386.56;5081689;28;20024;-76
2022/04/27 01:16:06;;;;;;;10.30;4.80;;;;;;;8.65;75.11;102383.50;5080278;28;20047;-76
2022/04/27 01:18:32;;;;;;;10.88;5.03;;;;;;;8.68;74.98;102383.25;5080377;28;20040;-76
2022/04/27 01:20:57;;;;;;;11.88;4.55;;;;;;;8.67;74.52;102378.03;5078343;28;20028;-77
2022/04/27 01:23:23;;;;;;;14.85;4.93;;;;;;;8.69;74.93;102382.28;5075359;28;20029;-76
2022/04/27 01:25:49;;;;;;;12.35;4.88;;;;;;;8.72;74.83;102381.16;5075964;28;20029;-74
2022/04/27 01:28:20;;;;;;;16.42;4.97;;;;;;;8.72;74.48;102381.16;5077467;28;20036;-75
2022/04/27 01:30:46;;;;;;;9.20;4.53;;;;;;;8.75;74.43;102383.59;5080519;28;20021;-74
2022/04/27 01:33:12;;;;;;;8.73;4.40;;;;;;;8.77;74.61;102381.63;5083591;28;20020;-76
2022/04/27 01:35:38;;;;;;;7.20;4.43;;;;;;;8.80;74.14;102381.34;5083824;28;20052;-76
2022/04/27 01:38:04;;;;;;;9.43;4.50;;;;;;;8.83;73.99;102382.91;5078353;28;20036;-75
2022/04/27 01:40:30;;;;;;;10.32;4.22;;;;;;;8.75;73.97;102386.25;5077471;28;20040;-75
2022/04/27 01:42:55;;;;;;;9.75;4.47;;;;;;;8.73;74.55;102382.84;5075292;28;20139;-76
2022/04/27 01:45:21;;;;;;;12.00;5.13;;;;;;;8.73;74.29;102390.91;5074447;28;20064;-76
2022/04/27 01:47:46;;;;;;;8.73;4.68;;;;;;;8.77;74.92;102392.34;5074784;28;20029;-77
2022/04/27 01:50:11;;;;;;;8.82;4.80;;;;;;;8.78;75.01;102394.91;5075625;28;20048;-75
2022/04/27 01:55:20;;;;;;;14.30;4.15;;;;;;;8.84;75.58;102390.81;5072736;28;20094;-75
2022/04/27 01:57:46;;;;;;;13.98;3.90;;;;;;;8.87;75.23;102393.25;5073366;28;20020;-74
2022/04/27 02:00:11;;;;;;;16.73;4.43;;;;;;;8.90;75.02;102398.38;5073091;28;20025;-76
2022/04/27 02:02:37;;;;;;;6.85;3.72;;;;;;;8.90;74.75;102397.50;5074016;28;20036;-76
2022/04/27 02:05:04;;;;;;;10.55;3.78;;;;;;;8.92;74.60;102395.53;5073319;28;20028;-76
2022/04/27 02:07:30;;;;;;;7.97;3.77;;;;;;;8.94;74.30;102407.84;5074717;28;20039;-74
2022/04/27 02:09:55;;;;;;;8.32;4.05;;;;;;;8.93;73.98;102395.41;5072966;28;20286;-76
2022/04/27 02:12:21;;;;;;;7.00;3.90;;;;;;;8.93;74.02;102403.47;5071249;28;20056;-75
2022/04/27 02:14:47;;;;;;;9.10;4.07;;;;;;;8.92;73.43;102404.44;5072607;28;20029;-76
2022/04/27 02:17:12;;;;;;;9.68;4.28;;;;;;;8.81;74.03;102403.66;5074055;28;20025;-76
2022/04/27 02:19:37;;;;;;;8.63;4.15;;;;;;;8.72;74.93;102411.53;5072998;28;20048;-75
2022/04/27 02:22:03;;;;;;;10.60;4.22;;;;;;;8.68;75.59;102411.91;5074489;28;20393;-75
2022/04/27 02:24:29;;;;;;;9.43;4.35;;;;;;;8.66;75.47;102416.56;5061792;28;20047;-74
2022/04/27 02:26:54;;;;;;;10.27;4.57;;;;;;;8.65;76.14;102422.94;5050913;28;20113;-76
2022/04/27 02:29:21;;;;;;;13.82;5.13;;;;;;;8.67;76.21;102420.97;5052488;28;20498;-75
2022/04/27 02:31:46;;;;;;;8.95;5.18;;;;;;;8.72;76.00;102411.53;5052813;28;20158;-74
2022/04/27 02:34:11;;;;;;;14.00;6.22;;;;;;;8.77;76.29;102420.06;5053260;28;20057;-76
2022/04/27 02:36:37;;;;;;;17.05;5.07;;;;;;;8.79;76.06;102419.91;5051650;28;20028;-75
2022/04/27 02:39:02;;;;;;;17.08;5.00;;;;;;;8.83;76.22;102423.19;5053037;28;20069;-77
2022/04/27 02:41:28;;;;;;;7.05;4.35;;;;;;;8.83;75.81;102418.66;5051930;28;20361;-74
2022/04/27 02:43:54;;;;;;;9.02;4.47;;;;;;;8.86;75.34;102423.78;5053034;28;20017;-75
2022/04/27 02:46:19;;;;;;;7.85;4.95;;;;;;;8.81;75.37;102420.63;5034908;28;20139;-75
2022/04/27 02:54:12;;;;;;;13.43;6.75;;;;;;;8.83;75.70;102423.19;5072979;28;20055;-74
2022/04/27 02:56:38;;;;;;;13.48;6.70;;;;;;;8.82;75.25;102419.66;5073834;28;20476;-75
2022/04/27 02:59:04;;;;;;;11.18;6.18;;;;;;;8.87;75.10;102421.94;5073580;28;20033;-75
2022/04/27 03:01:29;;;;;;;12.52;6.82;;;;;;;8.84;75.08;102422.19;5071915;28;20369;-76
2022/04/27 03:03:55;;;;;;;13.07;7.07;;;;;;;8.89;75.37;102418.13;5072402;28;20024;-76
2022/04/27 03:06:20;;;;;;;12.82;7.13;;;;;;;8.94;74.32;102421.28;5074652;28;20051;-75
2022/04/27 03:08:45;;;;;;;14.90;7.75;;;;;;;8.92;74.17;102428.59;5074044;28;20464;-74
2022/04/27 03:11:11;;;;;;;12.73;7.18;;;;;;;8.93;74.13;102421.41;5074679;28;20056;-76
2022/04/27 03:13:36;;;;;;;23.40;8.20;;;;;;;8.89;73.96;102423.50;5077040;28;20040;-74
2022/04/27 03:16:01;;;;;;;14.02;7.63;;;;;;;8.89;74.30;102428.03;5075932;28;20032;-76
2022/04/27 03:18:27;;;;;;;15.60;7.60;;;;;;;8.91;74.13;102428.75;5074445;28;20036;-75
2022/04/27 03:20:52;;;;;;;15.70;7.15;;;;;;;8.90;74.48;102425.22;5076905;28;20036;-76
2022/04/27 03:23:18;;;;;;;18.05;8.10;;;;;;;8.90;74.82;102419.84;5077149;28;20134;-74
2022/04/27 03:25:43;;;;;;;15.52;7.57;;;;;;;8.92;74.85;102423.22;5076710;28;20028;-75
2022/04/27 03:28:10;;;;;;;13.60;7.38;;;;;;;8.94;74.59;102420.44;5077807;28;20025;-75
2022/04/27 03:30:36;;;;;;;12.32;7.90;;;;;;;8.90;74.25;102419.84;5076668;28;20031;-76
2022/04/27 03:33:01;;;;;;;13.77;7.10;;;;;;;8.82;74.71;102416.97;5077209;28;20456;-76
2022/04/27 03:35:27;;;;;;;16.38;7.43;;;;;;;8.76;75.18;102412.97;5076953;28;20044;-76
2022/04/27 03:37:52;;;;;;;17.77;7.70;;;;;;;8.74;74.95;102414.94;5076606;28;20462;-75
2022/04/27 03:40:21;;;;;;;15.23;6.57;;;;;;;8.82;74.53;102411.59;5058441;28;20083;-75
2022/04/27 03:42:47;;;;;;;9.15;5.95;;;;;;;8.86;73.65;102417.56;5078384;28;20411;-76
2022/04/27 03:45:12;;;;;;;13.13;6.70;;;;;;;8.80;74.09;102418.94;5079628;28;20025;-76
2022/04/27 03:47:37;;;;;;;10.25;6.40;;;;;;;8.80;74.04;102424.31;5078952;28;20079;-76
2022/04/27 03:50:04;;;;;;;14.25;6.72;;;;;;;8.81;73.93;102423.31;5077459;28;20036;-74
2022/04/27 03:52:33;;;;;;;11.57;6.65;;;;;;;8.82;74.13;102433.09;5076527;28;20085;-76
2022/04/27 03:55:02;;;;;;;13.25;6.70;;;;;;;8.83;74.57;102424.03;5076407;28;20075;-76
2022/04/27 03:57:28;;;;;;;11.32;6.35;;;;;;;8.89;74.66;102433.41;5075111;28;20464;-76
2022/04/27 03:59:53;;;;;;;20.23;7.43;;;;;;;8.86;74.53;102431.81;5076224;28;20081;-75
2022/04/27 04:02:19;;;;;;;19.02;7.40;;;;;;;8.89;74.31;102423.50;5072925;28;20484;-74
2022/04/27 04:04:44;;;;;;;10.75;6.25;;;;;;;8.92;74.22;102423.22;5075280;28;20464;-77
2022/04/27 04:07:10;;;;;;;13.75;6.72;;;;;;;8.96;73.72;102429.22;5075341;28;20021;-75
2022/04/27 04:09:36;;;;;;;12.00;6.00;;;;;;;8.96;73.62;102430.06;5075840;28;20031;-77
2022/04/27 04:12:01;;;;;;;6.00;4.20;;;;;;;8.95;72.95;102433.72;5074204;28;20029;-75
2022/04/27 04:14:27;;;;;;;14.98;5.32;;;;;;;8.98;72.77;102433.47;5075786;28;20523;-76
2022/04/27 04:16:52;;;;;;;9.07;4.25;;;;;;;9.02;71.88;102426.81;5075638;28;20020;-75
2022/04/27 04:19:18;;;;;;;8.32;4.00;;;;;;;9.02;72.13;102432.19;5075607;28;20036;-76
2022/04/27 04:21:43;;;;;;;9.20;4.10;;;;;;;9.07;71.69;102434.50;5076365;28;20044;-75
2022/04/27 04:24:08;;;;;;;8.05;3.78;;;;;;;9.03;72.19;102435.75;5075779;28;20033;-74
2022/04/27 04:29:18;;;;;;;7.40;3.70;;;;;;;9.01;72.35;102443.94;5076516;28;20039;-75
2022/04/27 04:31:43;;;;;;;6.50;3.38;;;;;;;9.06;71.94;102442.66;5092140;28;20028;-74
2022/04/27 04:34:08;;;;;;;5.28;3.05;;;;;;;9.14;71.63;102454.47;5080209;28;20110;-75
2022/04/27 04:36:34;;;;;;;6.95;3.15;;;;;;;9.13;71.71;102454.59;5077805;28;20024;-75
2022/04/27 04:38:59;;;;;;;9.63;3.75;;;;;;;9.19;71.78;102451.41;5086623;28;20047;-76
2022/04/27 04:41:24;;;;;;;8.90;3.50;;;;;;;9.16;71.57;102451.63;5078883;28;20086;-73
2022/04/27 04:43:50;;;;;;;14.93;5.47;;;;;;;9.11;72.18;102451.19;5077093;28;20044;-76
2022/04/27 04:46:15;;;;;;;8.63;3.47;;;;;;;9.11;72.31;102462.81;5080584;28;20059;-76
2022/04/27 04:48:40;;;;;;;10.40;3.70;;;;;;;9.13;71.42;102462.66;5081507;28;20437;-76
2022/04/27 04:51:06;;;;;;;9.85;3.33;;;;;;;9.12;71.15;102463.66;5079103;28;20047;-76
2022/04/27 04:53:31;;;;;;;11.10;3.65;;;;;;;9.17;70.66;102464.94;5077582;28;20488;-75
2022/04/27 04:55:56;;;;;;;11.98;3.72;;;;;;;9.16;70.50;102463.25;5074538;28;20464;-79
2022/04/27 04:58:21;;;;;;;5.53;2.90;;;;;;;9.16;70.44;102467.75;5076080;28;20024;-74
2022/04/27 05:00:48;;;;;;;7.32;3.45;;;;;;;9.17;70.46;102480.22;5078533;28;20492;-77
2022/04/27 05:03:14;;;;;;;8.98;2.70;;;;;;;9.17;70.02;102481.06;5077060;28;20016;-77
2022/04/27 05:05:40;;;;;;;6.75;3.20;;;;;;;9.18;69.38;102482.75;5076184;28;20047;-76
2022/04/27 05:08:06;;;;;;;9.68;3.05;;;;;;;9.15;69.48;102483.03;5079280;28;20025;-76
2022/04/27 05:10:31;;;;;;;10.88;3.03;;;;;;;9.15;69.73;102487.53;5079342;28;20088;-76
2022/04/27 05:12:57;;;;;;;8.02;3.03;;;;;;;9.16;69.75;102494.59;5077261;28;20056;-76
2022/04/27 05:15:22;;;;;;;9.70;3.33;;;;;;;9.19;69.62;102500.59;5086357;28;20043;-76
2022/04/27 05:17:47;;;;;;;8.45;3.13;;;;;;;9.24;69.94;102497.47;5083836;28;20029;-77
2022/04/27 05:20:13;;;;;;;7.10;3.20;;;;;;;9.26;69.86;102497.38;5088739;28;20576;-77
2022/04/27 05:22:38;;;;;;;4.45;2.55;;;;;;;9.25;69.94;102501.91;5089530;28;20031;-76
2022/04/27 05:25:08;;;;;;;10.30;2.78;;;;;;;9.26;70.03;102508.97;5088801;28;20032;-76
2022/04/27 05:27:34;;;;;;;7.10;3.25;;;;;;;9.23;69.76;102511.91;5079938;28;20101;-75
2022/04/27 05:32:44;;;;;;;6.88;3.90;;;;;;;9.24;70.81;102513.59;5072264;28;20051;-75
2022/04/27 05:35:09;;;;;;;7.50;3.42;;;;;;;9.28;70.49;102515.06;5071740;28;20060;-75
2022/04/27 05:37:35;;;;;;;7.63;3.67;;;;;;;9.27;70.12;102523.22;5074888;28;20032;-77
2022/04/27 05:40:01;;;;;;;5.40;3.60;;;;;;;9.28;69.95;102525.81;5078731;28;20036;-78
2022/04/27 05:42:26;;;;;;;10.73;3.60;;;;;;;9.31;69.67;102525.53;5089387;28;20021;-78
2022/04/27 05:44:51;;;;;;;15.02;4.07;;;;;;;9.34;69.90;102525.25;5094219;28;20029;-79
2022/04/27 05:47:17;;;;;;;9.05;4.15;;;;;;;9.37;69.46;102525.03;5095080;28;20016;-77
2022/04/27 05:49:42;;;;;;;9.18;3.50;;;;;;;9.42;70.03;102527.28;5094569;28;20032;-77
2022/04/27 05:52:07;;;;;;;6.10;3.42;;;;;;;9.41;69.36;102521.06;5093242;28;20033;-76
2022/04/27 05:54:33;;;;;;;9.18;3.70;;;;;;;9.45;69.12;102527.91;5090405;28;20028;-77
2022/04/27 05:56:58;;;;;;;8.43;3.17;;;;;;;9.45;68.97;102527.03;5079816;28;20028;-75
2022/04/27 05:59:23;;;;;;;10.77;3.40;;;;;;;9.52;68.49;102538.94;5085073;28;20031;-76
2022/04/27 06:01:48;;;;;;;9.15;4.35;;;;;;;9.50;68.41;102534.69;5084793;28;20032;-78
2022/04/27 06:04:14;;;;;;;13.07;3.63;;;;;;;9.45;68.97;102538.66;5088026;28;20051;-78
2022/04/27 06:06:39;;;;;;;7.55;3.67;;;;;;;9.44;69.66;102534.25;5092536;28;20024;-79
2022/04/27 06:09:04;;;;;;;9.05;3.95;;;;;;;9.49;69.72;102538.38;5090378;28;20151;-77
2022/04/27 06:11:30;;;;;;;5.65;3.47;;;;;;;9.54;68.74;102546.88;5087018;28;20052;-75
2022/04/27 06:13:55;;;;;;;7.93;3.40;;;;;;;9.59;68.46;102541.97;5087641;28;20036;-79
2022/04/27 06:16:23;;;;;;;11.05;2.92;;;;;;;9.60;67.88;102549.03;5088036;28;20055;-78
2022/04/27 06:18:48;;;;;;;12.68;2.83;;;;;;;9.59;68.39;102550.88;5087772;28;20055;-78
2022/04/27 06:21:13;;;;;;;9.32;4.45;;;;;;;9.61;68.48;102545.34;5085474;28;20107;-78
2022/04/27 06:23:39;;;;;;;7.72;3.10;;;;;;;9.70;68.48;102558.00;5082815;28;20056;-77
2022/04/27 06:26:08;;;;;;;9.85;3.30;;;;;;;9.71;67.77;102554.31;5089029;28;20012;-79
2022/04/27 06:28:34;;;;;;;7.47;3.30;;;;;;;9.72;68.07;102555.19;5090087;28;20032;-79
2022/04/27 06:30:59;;;;;;;6.55;3.15;;;;;;;9.79;67.36;102556.34;5092889;28;20028;-76
2022/04/27 06:33:25;;;;;;;9.98;3.60;;;;;;;9.77;67.59;102569.94;5091616;28;20028;-80
2022/04/27 06:35:53;;;;;;;8.82;3.25;;;;;;;9.77;67.81;102561.88;5093762;28;20060;-80
2022/04/27 06:38:18;;;;;;;8.10;3.25;;;;;;;9.85;67.40;102570.09;5094108;28;20025;-79
2022/04/27 06:40:44;;;;;;;12.18;3.55;;;;;;;9.87;67.17;102567.25;5089590;28;20086;-76
2022/04/27 06:43:09;;;;;;;7.60;3.00;;;;;;;9.94;66.89;102572.97;5091294;28;20078;-78
2022/04/27 06:45:36;;;;;;;8.65;3.10;;;;;;;9.96;66.85;102573.69;5088547;28;20080;-77
2022/04/27 06:48:02;;;;;;;6.35;2.50;;;;;;;10.00;66.85;102575.09;5084195;28;20086;-78
2022/04/27 06:50:28;;;;;;;6.53;3.45;;;;;;;9.97;66.55;102580.75;5079918;28;20024;-78
2022/04/27 06:52:54;;;;;;;7.53;3.38;;;;;;;9.98;66.51;102577.06;5081284;28;20032;-78
2022/04/27 06:55:20;;;;;;;7.50;2.72;;;;;;;9.98;65.81;102577.06;5075921;28;20531;-77
2022/04/27 06:57:45;;;;;;;7.70;3.00;;;;;;;10.02;65.61;102582.06;5074916;28;20060;-76
2022/04/27 07:00:14;;;;;;;9.23;2.90;;;;;;;10.01;65.87;102587.59;5072602;28;20062;-76
2022/04/27 07:02:40;;;;;;;6.78;2.70;;;;;;;9.97;66.60;102580.75;5077752;28;20048;-77
2022/04/27 07:05:09;;;;;;;8.93;2.60;;;;;;;10.02;66.29;102591.97;5080340;28;20033;-77
2022/04/27 07:07:35;;;;;;;4.53;2.28;;;;;;;10.10;66.17;102586.75;5087167;28;20080;-77
2022/04/27 07:10:00;;;;;;;5.18;2.58;;;;;;;10.16;65.39;102585.34;5071550;28;20047;-78
2022/04/27 07:12:26;;;;;;;6.28;2.35;;;;;;;10.22;63.87;102584.84;5094879;28;20032;-77
2022/04/27 07:14:51;;;;;;;8.30;2.65;;;;;;;10.21;63.76;102594.72;5092452;28;20321;-77
2022/04/27 07:17:17;;;;;;;6.63;2.33;;;;;;;10.18;63.55;102584.22;5092588;28;20055;-78
2022/04/27 07:19:43;;;;;;;5.15;2.03;;;;;;;10.26;62.52;102597.84;5074746;28;20020;-79
2022/04/27 07:22:08;;;;;;;6.55;2.30;;;;;;;10.21;62.35;102593.88;5090127;28;20055;-78
2022/04/27 07:24:34;;;;;;;6.40;1.95;;;;;;;10.28;62.25;102600.44;5088108;28;20001;-78
2022/04/27 07:26:59;;;;;;;7.80;2.10;;;;;;;10.29;62.26;102607.53;5094109;28;20047;-76
2022/04/27 07:29:25;;;;;;;4.22;2.10;;;;;;;10.35;62.18;102611.50;5087565;28;20035;-79
2022/04/27 07:31:50;;;;;;;5.38;2.55;;;;;;;10.44;61.66;102616.06;5086613;28;20100;-77
2022/04/27 07:34:16;;;;;;;4.88;2.30;;;;;;;10.51;60.18;102622.63;5084012;28;20053;-76
2022/04/27 07:36:41;;;;;;;6.35;2.30;;;;;;;10.47;60.26;102624.72;5072888;28;20025;-77
2022/04/27 07:39:07;;;;;;;12.13;2.60;;;;;;;10.50;60.01;102623.59;5063717;28;20013;-77
2022/04/27 07:41:33;;;;;;;11.40;4.78;;;;;;;10.44;60.93;102622.31;5069650;28;20024;-76
2022/04/27 07:43:58;;;;;;;8.88;2.88;;;;;;;10.41;61.89;102621.75;5074959;28;20039;-78
2022/04/27 07:46:24;;;;;;;8.50;2.58;;;;;;;10.48;61.63;102622.91;5066309;28;20021;-73
2022/04/27 07:48:51;;;;;;;10.00;2.58;;;;;;;10.47;61.44;102626.56;5093311;28;20036;-75
2022/04/27 07:51:16;;;;;;;10.05;2.70;;;;;;;10.51;61.65;102633.41;5098409;28;20032;-77
2022/04/27 07:53:42;;;;;;;6.30;2.95;;;;;;;10.51;60.99;102633.41;5098143;28;20040;-75
2022/04/27 07:56:07;;;;;;;9.27;2.72;;;;;;;10.53;61.00;102634.97;5092010;28;20030;-77
2022/04/27 07:58:32;;;;;;;5.40;2.20;;;;;;;10.58;61.44;102628.28;5096476;28;20044;-78
2022/04/27 08:01:00;;;;;;;4.40;2.00;;;;;;;10.72;60.24;102638.69;5080866;28;20045;-77
2022/04/27 08:03:25;;;;;;;5.35;2.25;;;;;;;10.73;60.02;102627.75;5097844;28;20025;-81
2022/04/27 08:05:50;;;;;;;7.88;2.17;;;;;;;10.81;60.31;102637.84;5098250;28;20020;-79
2022/04/27 08:08:16;;;;;;;9.00;2.10;;;;;;;10.86;59.02;102635.56;5096989;28;20024;-78
2022/04/27 08:10:41;;;;;;;8.43;2.17;;;;;;;10.83;59.96;102643.09;5079068;28;20060;-79
2022/04/27 08:13:06;;;;;;;7.55;2.10;;;;;;;10.86;59.52;102648.19;5076939;28;20024;-79
2022/04/27 08:15:32;;;;;;;6.03;1.88;;;;;;;10.93;58.90;102647.50;5078104;28;20045;-79
2022/04/27 08:17:59;;;;;;;5.75;2.25;;;;;;;11.07;58.19;102654.31;5077627;28;20033;-77
2022/04/27 08:23:12;;;;;;;6.35;2.10;;;;;;;11.07;57.42;102657.00;5077417;28;20322;-79
2022/04/27 08:25:38;;;;;;;5.07;1.88;;;;;;;11.06;57.86;102668.78;5078351;28;20020;-79
2022/04/27 08:28:06;;;;;;;4.90;1.48;;;;;;;11.03;58.17;102660.97;5094984;28;20281;-79
2022/04/27 08:30:40;;;;;;;4.85;2.03;;;;;;;11.13;58.06;102660.97;5086845;28;20317;-79
2022/04/27 08:33:07;;;;;;;6.15;2.10;;;;;;;11.20;57.83;102668.34;5093914;28;20017;-78
2022/04/27 08:35:33;;;;;;;7.03;1.73;;;;;;;11.18;58.15;102666.81;5097549;28;20092;-78
2022/04/27 08:37:59;;;;;;;5.32;2.00;;;;;;;11.26;57.68;102668.78;5078417;28;20041;-79
2022/04/27 08:40:25;;;;;;;5.15;2.22;;;;;;;11.29;58.00;102665.81;5077574;28;20021;-77
2022/04/27 08:42:52;;;;;;;6.93;2.20;;;;;;;11.35;58.30;102665.25;5076934;28;20021;-78
2022/04/27 08:45:17;;;;;;;8.52;2.00;;;;;;;11.36;57.42;102664.25;5080796;28;20096;-78
2022/04/27 08:47:44;;;;;;;6.20;1.95;;;;;;;11.27;56.74;102670.47;5077150;28;20032;-77
2022/04/27 08:50:20;;;;;;;5.53;1.92;;;;;;;11.18;56.17;102670.34;5076871;28;20017;-78
2022/04/27 08:52:47;;;;;;;11.05;2.38;;;;;;;11.30;56.62;102675.63;5077486;28;20017;-79
2022/04/27 08:55:13;;;;;;;8.90;2.03;;;;;;;11.42;56.45;102674.44;5077511;28;20044;-79
2022/04/27 08:57:39;;;;;;;8.25;2.33;;;;;;;11.43;55.79;102684.25;5076990;28;20100;-79
2022/04/27 09:00:07;;;;;;;2.63;1.65;;;;;;;11.43;55.69;102684.25;5077443;28;20021;-78
2022/04/27 09:02:33;;;;;;;7.97;2.10;;;;;;;11.41;55.88;102683.56;5059736;28;20184;-79
2022/04/27 09:05:10;;;;;;;4.68;1.90;;;;;;;11.50;55.14;102689.91;5077039;28;20025;-79
2022/04/27 09:08:02;;;;;;;6.28;1.90;;;;;;;11.48;54.68;102698.16;5077022;28;20048;-79
2022/04/27 09:10:27;;;;;;;6.05;1.88;;;;;;;11.46;54.21;102689.38;5074804;28;20040;-79
2022/04/27 09:12:55;;;;;;;5.75;1.80;;;;;;;11.42;53.88;102694.16;5076781;28;20025;-79
2022/04/27 09:15:22;;;;;;;6.45;1.88;;;;;;;11.42;53.28;102682.53;5076076;28;20025;-79
2022/04/27 09:20:52;;;;;;;7.63;2.13;;;;;;;11.44;53.93;102688.66;5077177;28;20047;-79
2022/04/27 09:23:25;;;;;;;8.15;2.03;;;;;;;11.48;53.80;102691.91;5075711;28;20081;-78
2022/04/27 09:25:53;;;;;;;6.32;2.22;;;;;;;11.54;54.31;102694.91;5077214;28;20036;-79
2022/04/27 09:28:22;;;;;;;9.43;2.00;;;;;;;11.43;54.29;102695.91;5076117;28;20020;-79
2022/04/27 09:30:49;;;;;;;9.38;1.98;;;;;;;11.48;54.90;102692.78;5076636;28;20036;-78
2022/04/27 09:33:29;;;;;;;4.18;1.95;;;;;;;11.49;54.45;102694.47;5059027;28;20021;-79
2022/04/27 09:35:56;;;;;;;6.30;1.80;;;;;;;11.48;55.19;102694.59;5075300;28;20078;-77
2022/04/27 09:38:21;;;;;;;5.50;1.85;;;;;;;11.35;54.63;102694.91;5076516;28;20029;-79
2022/04/27 09:40:53;;;;;;;6.03;2.13;;;;;;;11.43;53.60;102703.13;5059153;28;20021;-79
2022/04/27 09:43:43;;;;;;;3.78;1.50;;;;;;;11.40;54.89;102712.34;5076237;28;20017;-78
2022/04/27 09:46:22;;;;;;;5.30;1.40;;;;;;;11.39;54.87;102710.63;5076419;28;20041;-78
2022/04/27 09:49:11;;;;;;;3.17;1.27;;;;;;;11.57;53.93;102718.03;5076597;28;20048;-78
2022/04/27 09:51:57;;;;;;;8.98;1.73;;;;;;;11.53;53.22;102712.09;5075775;28;20025;-78
2022/04/27 09:54:28;;;;;;;3.95;1.60;;;;;;;11.49;53.44;102716.03;5075782;28;20029;-78
2022/04/27 09:56:56;;;;;;;6.78;1.50;;;;;;;11.49;53.50;102717.88;5076335;28;20088;-78
2022/04/27 09:59:31;;;;;;;;;;;;;;;11.53;52.77;102717.47;5076365;28;20048;-79
2022/04/27 10:02:04;;;;;;;4.65;1.15;;;;;;;11.55;52.29;102712.75;5076458;28;19905;-79
2022/04/27 10:04:30;;;;;;;2.97;1.55;;;;;;;11.61;53.01;102714.91;5076574;28;20070;-78
2022/04/27 10:06:58;;;;;;;8.48;1.80;;;;;;;11.73;53.19;102712.06;5076440;28;20025;-78
2022/04/27 10:09:24;;;;;;;14.93;1.88;;;;;;;11.74;54.25;102708.34;5076241;28;20013;-78
2022/04/27 10:11:49;;;;;;;7.15;1.75;;;;;;;11.77;54.46;102716.16;5059077;28;20017;-77
2022/04/27 10:14:15;;;;;;;9.93;2.00;;;;;;;11.63;54.32;102703.97;5075201;28;20012;-77
2022/04/27 10:16:41;;;;;;;8.98;2.10;;;;;;;11.62;56.10;102711.22;5075984;28;20033;-78
2022/04/27 10:19:10;;;;;;;6.50;1.67;;;;;;;11.87;54.52;102708.94;5074747;28;20041;-77
2022/04/27 10:21:57;;;;;;;4.63;1.80;;;;;;;11.97;54.29;102708.91;5091129;28;20025;-78
2022/04/27 10:24:34;;;;;;;7.03;1.92;;;;;;;11.99;53.58;102702.38;5093500;28;20024;-76
2022/04/27 10:27:22;;;;;;;11.82;1.92;;;;;;;11.93;52.75;102705.66;5090963;28;20021;-76
2022/04/27 10:29:51;;;;;;;6.07;1.67;;;;;;;11.95;53.96;102706.34;5092825;28;20032;-77
2022/04/27 10:32:37;;;;;;;6.65;1.83;;;;;;;12.16;53.48;102702.59;5093228;28;20028;-75
2022/04/27 10:35:11;;;;;;;6.47;1.85;;;;;;;12.19;52.76;102707.72;5087473;28;20040;-75
2022/04/27 10:37:44;;;;;;;12.57;1.95;;;;;;;12.21;51.50;102716.53;5085462;28;20630;-76
2022/04/27 10:40:41;;;;;;;7.03;1.80;;;;;;;12.11;52.78;102705.75;5076642;28;20037;-77
2022/04/27 10:43:07;;;;;;;8.68;2.00;;;;;;;12.34;52.15;102705.41;5050636;28;20580;-78
2022/04/27 10:45:37;;;;;;;8.00;2.40;;;;;;;12.42;52.01;102703.66;5066484;28;20035;-75
2022/04/27 10:48:06;;;;;;;7.45;1.98;;;;;;;12.44;52.38;102712.47;5068474;28;20004;-80
2022/04/27 10:50:33;;;;;;;8.73;2.00;;;;;;;12.54;51.80;102700.78;5088917;28;20027;-80
2022/04/27 10:53:14;;;;;;;7.13;1.75;;;;;;;12.56;52.33;102709.56;5089653;28;20044;-80
2022/04/27 10:55:45;;;;;;;5.57;1.80;;;;;;;12.52;52.46;102715.25;5089001;28;20027;-79
2022/04/27 10:58:15;;;;;;;10.07;1.85;;;;;;;12.60;51.12;102713.69;5090746;28;20055;-76
2022/04/27 11:00:58;;;;;;;9.73;1.90;;;;;;;12.64;50.85;102712.38;5077356;28;20037;-77
2022/04/27 11:03:38;;;;;;;6.50;1.63;;;;;;;12.80;50.10;102717.16;5073959;28;20526;-76
2022/04/27 11:06:06;;;;;;;5.15;1.75;;;;;;;12.86;49.83;102717.38;5066347;28;20075;-79
2022/04/27 11:08:43;;;;;;;6.05;1.70;;;;;;;12.74;50.26;102719.44;5079453;28;20043;-76
2022/04/27 11:11:09;;;;;;;9.40;2.00;;;;;;;12.68;50.57;102708.38;5084792;28;20056;-78
2022/04/27 11:13:36;;;;;;;12.02;2.38;;;;;;;12.59;50.17;102715.53;5077228;28;20043;-77
2022/04/27 11:16:07;;;;;;;6.63;1.70;;;;;;;12.43;51.29;102710.78;5081280;28;20044;-77
2022/04/27 11:18:49;;;;;;;9.52;2.15;;;;;;;12.51;51.25;102715.44;5073457;28;20028;-77
2022/04/27 11:21:15;;;;;;;7.10;1.60;;;;;;;12.69;50.88;102715.47;5074703;28;20058;-79
2022/04/27 11:23:41;;;;;;;10.75;1.98;;;;;;;12.77;50.65;102712.00;5072402;28;20405;-76
2022/04/27 11:26:07;;;;;;;10.13;2.03;;;;;;;12.85;50.14;102715.69;5078921;28;20051;-77
2022/04/27 11:28:32;;;;;;;11.38;2.80;;;;;;;12.89;49.91;102717.06;5085908;28;20097;-78
2022/04/27 11:30:57;;;;;;;10.20;2.00;;;;;;;12.91;50.47;102717.78;5083428;28;20021;-78
2022/04/27 11:33:23;;;;;;;16.77;2.40;;;;;;;12.95;50.83;102716.47;5078596;28;20059;-78
2022/04/27 11:35:49;;;;;;;11.60;2.67;;;;;;;12.99;51.52;102708.06;5079324;28;20079;-77
2022/04/27 11:38:19;;;;;;;13.82;2.33;;;;;;;12.99;51.13;102717.00;5074591;28;20059;-78
2022/04/27 11:40:44;;;;;;;10.93;2.47;;;;;;;12.89;51.37;102716.22;5072229;28;20040;-77
2022/04/27 11:43:10;;;;;;;7.18;2.15;;;;;;;12.78;51.81;102722.69;5070389;28;20086;-77
2022/04/27 11:45:35;;;;;;;9.35;1.80;;;;;;;12.74;51.71;102716.75;5057654;28;20087;-77